地図

経路データ

SID SEASON NUMBER BASIN SUBBASIN NAME ISO_TIME NATURE LAT LON WMO_WIND WMO_PRES WMO_AGENCY TRACK_TYPE DIST2LAND LANDFALL IFLAG USA_AGENCY USA_ATCF_ID USA_LAT USA_LON USA_RECORD USA_STATUS USA_WIND USA_PRES USA_SSHS USA_R34_NE USA_R34_SE USA_R34_SW USA_R34_NW USA_R50_NE USA_R50_SE USA_R50_SW USA_R50_NW USA_R64_NE USA_R64_SE USA_R64_SW USA_R64_NW USA_POCI USA_ROCI USA_RMW USA_EYE TOKYO_LAT TOKYO_LON TOKYO_GRADE TOKYO_WIND TOKYO_PRES TOKYO_R50_DIR TOKYO_R50_LONG TOKYO_R50_SHORT TOKYO_R30_DIR TOKYO_R30_LONG TOKYO_R30_SHORT TOKYO_LAND CMA_LAT CMA_LON CMA_CAT CMA_WIND CMA_PRES HKO_LAT HKO_LON HKO_CAT HKO_WIND HKO_PRES NEWDELHI_LAT NEWDELHI_LON NEWDELHI_GRADE NEWDELHI_WIND NEWDELHI_PRES NEWDELHI_CI NEWDELHI_DP NEWDELHI_POCI REUNION_LAT REUNION_LON REUNION_TYPE REUNION_WIND REUNION_PRES REUNION_TNUM REUNION_CI REUNION_RMW REUNION_R34_NE REUNION_R34_SE REUNION_R34_SW REUNION_R34_NW REUNION_R50_NE REUNION_R50_SE REUNION_R50_SW REUNION_R50_NW REUNION_R64_NE REUNION_R64_SE REUNION_R64_SW REUNION_R64_NW BOM_LAT BOM_LON BOM_TYPE BOM_WIND BOM_PRES BOM_TNUM BOM_CI BOM_RMW BOM_R34_NE BOM_R34_SE BOM_R34_SW BOM_R34_NW BOM_R50_NE BOM_R50_SE BOM_R50_SW BOM_R50_NW BOM_R64_NE BOM_R64_SE BOM_R64_SW BOM_R64_NW BOM_ROCI BOM_POCI BOM_EYE BOM_POS_METHOD BOM_PRES_METHOD NADI_LAT NADI_LON NADI_CAT NADI_WIND NADI_PRES WELLINGTON_LAT WELLINGTON_LON WELLINGTON_WIND WELLINGTON_PRES DS824_LAT DS824_LON DS824_STAGE DS824_WIND DS824_PRES TD9636_LAT TD9636_LON TD9636_STAGE TD9636_WIND TD9636_PRES TD9635_LAT TD9635_LON TD9635_WIND TD9635_PRES TD9635_ROCI NEUMANN_LAT NEUMANN_LON NEUMANN_CLASS NEUMANN_WIND NEUMANN_PRES MLC_LAT MLC_LON MLC_CLASS MLC_WIND MLC_PRES USA_GUST BOM_GUST BOM_GUST_PER REUNION_GUST REUNION_GUST_PER USA_SEAHGT USA_SEARAD_NE USA_SEARAD_SE USA_SEARAD_SW USA_SEARAD_NW STORM_SPEED STORM_DIR
1941261N24272 1941 58 NA GM NOT_NAMED 1941-09-17 12:00:00 TS 23.7000 -88.0000 25 hurdat_atl main 245 245 O_____________ hurdat_atl AL021941 23.7000 -88.0000 TD 25 -1 10 334
1941261N24272 1941 58 NA GM NOT_NAMED 1941-09-17 15:00:00 TS 24.1626 -88.2497 main 301 301 P_____________ AL021941 24.1626 -88.2497 TD 27 -1 10 333
1941261N24272 1941 58 NA GM NOT_NAMED 1941-09-17 18:00:00 TS 24.6000 -88.5000 30 hurdat_atl main 346 346 O_____________ hurdat_atl AL021941 24.6000 -88.5000 TD 30 -1 9 331
1941261N24272 1941 58 NA GM NOT_NAMED 1941-09-17 21:00:00 TS 24.9874 -88.7501 main 391 391 P_____________ AL021941 24.9874 -88.7501 TD 30 -1 8 327
1941261N24272 1941 58 NA GM NOT_NAMED 1941-09-18 00:00:00 TS 25.3000 -89.0000 30 hurdat_atl main 413 390 O_____________ hurdat_atl AL021941 25.3000 -89.0000 TD 30 -1 7 319
1941261N24272 1941 58 NA GM NOT_NAMED 1941-09-18 03:00:00 TS 25.5376 -89.2800 main 391 369 P_____________ AL021941 25.5376 -89.2800 TD 32 -1 6 312
1941261N24272 1941 58 NA GM NOT_NAMED 1941-09-18 06:00:00 TS 25.7000 -89.5000 35 hurdat_atl main 370 360 O_____________ hurdat_atl AL021941 25.7000 -89.5000 TS 35 0 4 314
1941261N24272 1941 58 NA GM NOT_NAMED 1941-09-18 09:00:00 TS 25.8224 -89.6101 main 360 349 P_____________ AL021941 25.8224 -89.6101 TS 35 0 2 335
1941261N24272 1941 58 NA GM NOT_NAMED 1941-09-18 12:00:00 TS 25.9000 -89.6000 35 hurdat_atl main 349 337 O_____________ hurdat_atl AL021941 25.9000 -89.6000 TS 35 0 2 40
1941261N24272 1941 58 NA GM NOT_NAMED 1941-09-18 15:00:00 TS 25.9650 -89.4801 main 337 335 P_____________ AL021941 25.9650 -89.4801 TS 37 0 3 69
1941261N24272 1941 58 NA GM NOT_NAMED 1941-09-18 18:00:00 TS 26.0000 -89.3000 40 hurdat_atl main 335 335 O_____________ hurdat_atl AL021941 26.0000 -89.3000 TS 40 0 3 79
1941261N24272 1941 58 NA GM NOT_NAMED 1941-09-18 21:00:00 TS 26.0225 -89.1425 main 335 335 P_____________ AL021941 26.0225 -89.1425 TS 42 0 3 90
1941261N24272 1941 58 NA GM NOT_NAMED 1941-09-19 00:00:00 TS 26.0000 -89.0000 45 hurdat_atl main 335 335 O_____________ hurdat_atl AL021941 26.0000 -89.0000 TS 45 0 2 114
1941261N24272 1941 58 NA GM NOT_NAMED 1941-09-19 03:00:00 TS 25.9225 -88.8925 main 346 346 P_____________ AL021941 25.9225 -88.8925 TS 47 0 3 138
1941261N24272 1941 58 NA GM NOT_NAMED 1941-09-19 06:00:00 TS 25.8000 -88.8000 50 hurdat_atl main 358 358 O_____________ hurdat_atl AL021941 25.8000 -88.8000 TS 50 0 3 146
1941261N24272 1941 58 NA GM NOT_NAMED 1941-09-19 09:00:00 TS 25.6575 -88.6925 main 370 370 P_____________ AL021941 25.6575 -88.6925 TS 52 0 4 149
1941261N24272 1941 58 NA GM NOT_NAMED 1941-09-19 12:00:00 TS 25.5000 -88.6000 55 hurdat_atl main 393 393 O_____________ hurdat_atl AL021941 25.5000 -88.6000 TS 55 0 3 155
1941261N24272 1941 58 NA GM NOT_NAMED 1941-09-19 15:00:00 TS 25.3575 -88.5425 main 406 406 P_____________ AL021941 25.3575 -88.5425 TS 55 0 3 164
1941261N24272 1941 58 NA GM NOT_NAMED 1941-09-19 18:00:00 TS 25.2000 -88.5000 55 hurdat_atl main 413 391 O_____________ hurdat_atl AL021941 25.2000 -88.5000 TS 55 0 4 167
1941261N24272 1941 58 NA GM NOT_NAMED 1941-09-19 21:00:00 TS 25.0000 -88.4575 main 391 368 P_____________ AL021941 25.0000 -88.4575 TS 55 0 4 168
1941261N24272 1941 58 NA GM NOT_NAMED 1941-09-20 00:00:00 TS 24.8000 -88.4000 55 hurdat_atl main 368 357 O_____________ hurdat_atl AL021941 24.8000 -88.4000 TS 55 0 4 159
1941261N24272 1941 58 NA GM NOT_NAMED 1941-09-20 03:00:00 TS 24.6500 -88.3075 main 357 335 P_____________ AL021941 24.6500 -88.3075 TS 57 0 4 149
1941261N24272 1941 58 NA GM NOT_NAMED 1941-09-20 06:00:00 TS 24.5000 -88.2000 60 hurdat_atl main 335 312 O_____________ hurdat_atl AL021941 24.5000 -88.2000 TS 60 0 4 151
1941261N24272 1941 58 NA GM NOT_NAMED 1941-09-20 09:00:00 TS 24.3150 -88.1076 main 312 290 P_____________ AL021941 24.3150 -88.1076 TS 60 0 4 156
1941261N24272 1941 58 NA GM NOT_NAMED 1941-09-20 12:00:00 TS 24.1000 -88.0000 60 hurdat_atl main 290 268 O_____________ hurdat_atl AL021941 24.1000 -88.0000 TS 60 0 5 151
1941261N24272 1941 58 NA GM NOT_NAMED 1941-09-20 15:00:00 TS 23.8426 -87.8198 main 257 234 P_____________ AL021941 23.8426 -87.8198 TS 60 0 6 151
1941261N24272 1941 58 NA GM NOT_NAMED 1941-09-20 18:00:00 TS 23.6000 -87.7000 60 hurdat_atl main 234 212 O_____________ hurdat_atl AL021941 23.6000 -87.7000 TS 60 0 5 173
1941261N24272 1941 58 NA GM NOT_NAMED 1941-09-20 21:00:00 TS 23.3750 -87.7553 main 212 201 P_____________ AL021941 23.3750 -87.7553 TS 60 0 4 211
1941261N24272 1941 58 NA GM NOT_NAMED 1941-09-21 00:00:00 TS 23.3000 -87.9000 60 hurdat_atl main 201 201 O_____________ hurdat_atl AL021941 23.3000 -87.9000 TS 60 0 3 293
1941261N24272 1941 58 NA GM NOT_NAMED 1941-09-21 03:00:00 TS 23.4825 -88.0275 main 223 223 P_____________ AL021941 23.4825 -88.0275 TS 62 0 6 331
1941261N24272 1941 58 NA GM NOT_NAMED 1941-09-21 06:00:00 TS 23.8000 -88.2000 65 hurdat_atl main 257 257 O_____________ hurdat_atl AL021941 23.8000 -88.2000 HU 65 1 7 330
1941261N24272 1941 58 NA GM NOT_NAMED 1941-09-21 09:00:00 TS 24.1075 -88.4274 main 290 290 P_____________ AL021941 24.1075 -88.4274 HU 67 1 8 323
1941261N24272 1941 58 NA GM NOT_NAMED 1941-09-21 12:00:00 TS 24.4000 -88.7000 70 hurdat_atl main 324 324 O_____________ hurdat_atl AL021941 24.4000 -88.7000 HU 70 1 7 316
1941261N24272 1941 58 NA GM NOT_NAMED 1941-09-21 15:00:00 TS 24.6224 -88.9777 main 348 348 P_____________ AL021941 24.6224 -88.9777 HU 70 1 7 306
1941261N24272 1941 58 NA GM NOT_NAMED 1941-09-21 18:00:00 TS 24.8000 -89.3000 70 hurdat_atl main 375 375 O_____________ hurdat_atl AL021941 24.8000 -89.3000 HU 70 1 7 298
1941261N24272 1941 58 NA GM NOT_NAMED 1941-09-21 21:00:00 TS 24.9575 -89.6851 main 407 407 P_____________ AL021941 24.9575 -89.6851 HU 72 1 8 292
1941261N24272 1941 58 NA GM NOT_NAMED 1941-09-22 00:00:00 TS 25.1000 -90.1000 75 hurdat_atl main 430 430 O_____________ hurdat_atl AL021941 25.1000 -90.1000 HU 75 1 8 291
1941261N24272 1941 58 NA GM NOT_NAMED 1941-09-22 03:00:00 TS 25.2348 -90.4853 main 435 413 P_____________ AL021941 25.2348 -90.4853 HU 77 1 8 293
1941261N24272 1941 58 NA GM NOT_NAMED 1941-09-22 06:00:00 TS 25.4000 -90.9000 80 hurdat_atl main 413 391 O_____________ hurdat_atl AL021941 25.4000 -90.9000 HU 80 1 9 297
1941261N24272 1941 58 NA GM NOT_NAMED 1941-09-22 09:00:00 TS 25.6425 -91.3849 main 393 368 P_____________ AL021941 25.6425 -91.3849 HU 82 1 10 299
1941261N24272 1941 58 NA GM NOT_NAMED 1941-09-22 12:00:00 TS 25.9000 -91.9000 85 hurdat_atl main 370 362 O_____________ hurdat_atl AL021941 25.9000 -91.9000 HU 85 2 10 297
1941261N24272 1941 58 NA GM NOT_NAMED 1941-09-22 15:00:00 TS 26.1073 -92.4003 main 366 360 P_____________ AL021941 26.1073 -92.4003 HU 87 2 10 294
1941261N24272 1941 58 NA GM NOT_NAMED 1941-09-22 18:00:00 TS 26.3000 -92.9000 90 hurdat_atl main 362 330 O_____________ hurdat_atl AL021941 26.3000 -92.9000 HU 90 2 10 293
1941261N24272 1941 58 NA GM NOT_NAMED 1941-09-22 21:00:00 TS 26.4924 -93.4077 main 330 286 P_____________ AL021941 26.4924 -93.4077 HU 92 2 10 294
1941261N24272 1941 58 NA GM NOT_NAMED 1941-09-23 00:00:00 TS 26.7000 -93.9000 95 hurdat_atl main 286 243 O_____________ hurdat_atl AL021941 26.7000 -93.9000 HU 95 2 10 297
1941261N24272 1941 58 NA GM NOT_NAMED 1941-09-23 03:00:00 TS 26.9425 -94.3875 main 243 195 P_____________ AL021941 26.9425 -94.3875 HU 97 3 9 302
1941261N24272 1941 58 NA GM NOT_NAMED 1941-09-23 06:00:00 TS 27.2000 -94.8000 100 hurdat_atl main 195 160 O_____________ hurdat_atl AL021941 27.2000 -94.8000 HU 100 3 8 308
1941261N24272 1941 58 NA GM NOT_NAMED 1941-09-23 09:00:00 TS 27.4423 -95.1027 main 160 121 P_____________ AL021941 27.4423 -95.1027 HU 102 3 7 318
1941261N24272 1941 58 NA GM NOT_NAMED 1941-09-23 12:00:00 TS 27.7000 -95.3000 105 hurdat_atl main 121 89 O_____________ hurdat_atl AL021941 27.7000 -95.3000 HU 105 3 6 332
1941261N24272 1941 58 NA GM NOT_NAMED 1941-09-23 15:00:00 TS 27.9792 -95.4260 main 89 59 P_____________ AL021941 27.9792 -95.4260 HU 107 3 6 344
1941261N24272 1941 58 NA GM NOT_NAMED 1941-09-23 18:00:00 TS 28.3000 -95.5000 110 hurdat_atl main 59 14 O_____________ hurdat_atl AL021941 28.3000 -95.5000 HU 110 3 7 348
1941261N24272 1941 58 NA GM NOT_NAMED 1941-09-23 21:00:00 TS 28.6824 -95.5859 main 14 9 P_____________ AL021941 28.6824 -95.5859 HU 110 3 8 350
1941261N24272 1941 58 NA GM NOT_NAMED 1941-09-23 22:00:00 TS 28.8000 -95.6000 110 hurdat_atl main 9 0 O_____________ hurdat_atl AL021941 28.8000 -95.6000 L HU 110 3 6 0
1941261N24272 1941 58 NA NA NOT_NAMED 1941-09-24 00:00:00 TS 29.0000 -95.6000 85 hurdat_atl main 0 0 O_____________ hurdat_atl AL021941 29.0000 -95.6000 HU 85 2 6 355
1941261N24272 1941 58 NA NA NOT_NAMED 1941-09-24 03:00:00 TS 29.3184 -95.6443 main 0 0 P_____________ AL021941 29.3184 -95.6443 HU 75 1 8 1
1941261N24272 1941 58 NA NA NOT_NAMED 1941-09-24 06:00:00 TS 29.8000 -95.6000 65 hurdat_atl main 0 0 O_____________ hurdat_atl AL021941 29.8000 -95.6000 HU 65 1 13 11
1941261N24272 1941 58 NA NA NOT_NAMED 1941-09-24 09:00:00 TS 30.5593 -95.3757 main 0 0 P_____________ AL021941 30.5593 -95.3757 HU 52 0 18 20
1941261N24272 1941 58 NA NA NOT_NAMED 1941-09-24 12:00:00 TS 31.5000 -94.9000 40 hurdat_atl main 0 0 O_____________ hurdat_atl AL021941 31.5000 -94.9000 TS 40 0 22 29
1941261N24272 1941 58 NA NA NOT_NAMED 1941-09-24 15:00:00 TS 32.4401 -94.1534 main 0 0 P_____________ AL021941 32.4401 -94.1534 TS 37 0 25 36
1941261N24272 1941 58 NA NA NOT_NAMED 1941-09-24 18:00:00 TS 33.5000 -93.2000 35 hurdat_atl main 0 0 O_____________ hurdat_atl AL021941 33.5000 -93.2000 TS 35 0 28 36
1941261N24272 1941 58 NA NA NOT_NAMED 1941-09-24 21:00:00 TS 34.6894 -92.1996 main 0 0 P_____________ AL021941 34.6894 -92.1996 TS 35 0 30 35
1941261N24272 1941 58 NA NA NOT_NAMED 1941-09-25 00:00:00 TS 36.0000 -91.1000 35 989 hurdat_atl main 0 0 O_____________ hurdat_atl AL021941 36.0000 -91.1000 TS 35 989 0 32 35
1941261N24272 1941 58 NA NA NOT_NAMED 1941-09-25 03:00:00 TS 37.3164 -89.9447 main 0 0 P_____________ AL021941 37.3164 -89.9447 TS 35 988 0 34 34
1941261N24272 1941 58 NA NA NOT_NAMED 1941-09-25 06:00:00 ET 38.8000 -88.7000 35 988 hurdat_atl main 0 0 O_____________ hurdat_atl AL021941 38.8000 -88.7000 EX 35 988 -4 39 31
1941261N24272 1941 58 NA NA NOT_NAMED 1941-09-25 09:00:00 ET 40.6205 -87.3684 main 0 0 P_____________ AL021941 40.6205 -87.3684 EX 37 986 -4 42 31
1941261N24272 1941 58 NA NA NOT_NAMED 1941-09-25 12:00:00 ET 42.4000 -85.9000 40 985 hurdat_atl main 0 0 O_____________ hurdat_atl AL021941 42.4000 -85.9000 EX 40 985 -4 38 36
1941261N24272 1941 58 NA NA NOT_NAMED 1941-09-25 15:00:00 ET 43.7152 -84.3038 main 0 0 P_____________ AL021941 43.7152 -84.3038 EX 45 -4 35 44
1941261N24272 1941 58 NA NA NOT_NAMED 1941-09-25 18:00:00 ET 44.9000 -82.6000 50 hurdat_atl main 0 0 O_____________ hurdat_atl AL021941 44.9000 -82.6000 EX 50 -4 35 45
1941261N24272 1941 58 NA NA NOT_NAMED 1941-09-25 21:00:00 ET 46.2319 -80.8088 main 0 0 P_____________ AL021941 46.2319 -80.8088 EX 52 -4 37 43
1941261N24272 1941 58 NA NA NOT_NAMED 1941-09-26 00:00:00 ET 47.6000 -78.9000 55 hurdat_atl main 0 0 O_____________ hurdat_atl AL021941 47.6000 -78.9000 EX 55 -4 38 45
1941261N24272 1941 58 NA NA NOT_NAMED 1941-09-26 03:00:00 ET 48.9484 -76.8291 main 0 0 P_____________ AL021941 48.9484 -76.8291 EX 52 -4 38 46
1941261N24272 1941 58 NA NA NOT_NAMED 1941-09-26 06:00:00 ET 50.3000 -74.7000 50 hurdat_atl main 0 0 O_____________ hurdat_atl AL021941 50.3000 -74.7000 EX 50 -4 39 46
1941261N24272 1941 58 NA NA NOT_NAMED 1941-09-26 09:00:00 ET 51.6577 -72.5073 main 0 0 P_____________ AL021941 51.6577 -72.5073 EX 47 -4 37 44
1941261N24272 1941 58 NA NA NOT_NAMED 1941-09-26 12:00:00 ET 53.0000 -70.5000 45 hurdat_atl main 0 0 O_____________ hurdat_atl AL021941 53.0000 -70.5000 EX 45 -4 35 40
1941261N24272 1941 58 NA NA NOT_NAMED 1941-09-26 15:00:00 ET 54.3044 -68.7904 main 0 0 P_____________ AL021941 54.3044 -68.7904 EX 45 -4 31 34
1941261N24272 1941 58 NA NA NOT_NAMED 1941-09-26 18:00:00 ET 55.6000 -67.5000 45 hurdat_atl main 0 0 O_____________ hurdat_atl AL021941 55.6000 -67.5000 EX 45 -4 29 25
1941261N24272 1941 58 NA NA NOT_NAMED 1941-09-26 21:00:00 ET 56.8981 -66.6353 main 0 0 P_____________ AL021941 56.8981 -66.6353 EX 45 -4 27 17
1941261N24272 1941 58 NA NA NOT_NAMED 1941-09-27 00:00:00 ET 58.2000 -66.0000 45 hurdat_atl main 0 O_____________ hurdat_atl AL021941 58.2000 -66.0000 EX 45 -4 27 14

IBTrACS Databaseについて

本データベースは、米国NOAAが公開する1842年以降の世界の熱帯低気圧のベストトラックデータアーカイブInternational Best Track Archive for Climate Stewardship (IBTrACS)を、ウェブで閲覧しやすい形式に変換したものです。

最終更新日:2021-11-26